createdAt,value
2018-02-17T00:01:25.169Z,27.87
2018-02-17T00:03:52.628Z,33.37
2018-02-17T00:06:20.063Z,29.90
2018-02-17T00:08:48.295Z,32.57
2018-02-17T00:11:15.762Z,34.50
2018-02-17T00:13:43.203Z,37.47
2018-02-17T00:16:10.658Z,35.73
2018-02-17T00:18:38.118Z,32.33
2018-02-17T00:21:05.573Z,37.40
2018-02-17T00:23:33.053Z,33.43
2018-02-17T00:26:01.246Z,31.40
2018-02-17T00:28:28.690Z,31.63
2018-02-17T00:30:56.143Z,38.67
2018-02-17T00:33:23.581Z,28.07
2018-02-17T00:35:51.038Z,41.57
2018-02-17T00:38:18.488Z,36.37
2018-02-17T00:40:45.966Z,40.30
2018-02-17T00:43:13.418Z,33.90
2018-02-17T00:45:40.909Z,37.07
2018-02-17T00:48:08.371Z,32.20
2018-02-17T00:50:35.814Z,30.23
2018-02-17T00:53:03.267Z,37.27
2018-02-17T00:55:30.706Z,35.90
2018-02-17T00:57:58.179Z,43.47
2018-02-17T01:00:25.627Z,37.33
2018-02-17T01:02:53.082Z,29.03
2018-02-17T01:05:20.534Z,40.93
2018-02-17T01:07:48.115Z,33.80
2018-02-17T01:10:15.557Z,29.10
2018-02-17T01:12:43.030Z,30.70
2018-02-17T01:15:11.356Z,29.10
2018-02-17T01:17:38.811Z,29.83
2018-02-17T01:20:06.242Z,41.93
2018-02-17T01:22:33.768Z,27.87
2018-02-17T01:25:01.316Z,31.37
2018-02-17T01:27:29.515Z,33.73
2018-02-17T01:29:57.127Z,35.03
2018-02-17T01:32:24.579Z,36.23
2018-02-17T01:34:52.050Z,31.93
2018-02-17T01:37:20.262Z,31.10
2018-02-17T01:39:47.726Z,33.23
2018-02-17T01:42:15.198Z,34.77
2018-02-17T01:44:42.663Z,29.23
2018-02-17T01:47:10.096Z,21.90
2018-02-17T01:49:37.560Z,25.87
2018-02-17T01:52:05.004Z,22.37
2018-02-17T01:54:32.479Z,25.90
2018-02-17T01:56:59.943Z,32.80
2018-02-17T01:59:27.399Z,26.70
2018-02-17T02:01:54.922Z,37.37
2018-02-17T02:04:22.828Z,27.83
2018-02-17T02:06:50.282Z,23.63
2018-02-17T02:09:17.759Z,35.07
2018-02-17T02:11:45.210Z,33.77
2018-02-17T02:14:12.671Z,25.13
2018-02-17T02:16:40.916Z,27.07
2018-02-17T02:19:08.383Z,36.37
2018-02-17T02:21:35.848Z,25.50
2018-02-17T02:24:03.305Z,29.43
2018-02-17T02:26:30.758Z,29.77
2018-02-17T02:28:58.230Z,29.67
2018-02-17T02:31:25.681Z,34.73
2018-02-17T02:33:53.135Z,33.90
2018-02-17T02:36:20.583Z,37.60
2018-02-17T02:38:48.048Z,32.77
2018-02-17T02:41:15.518Z,38.30
2018-02-17T02:43:42.989Z,31.53
2018-02-17T02:46:10.439Z,34.10
2018-02-17T02:48:37.896Z,35.97
2018-02-17T02:51:05.358Z,32.20
2018-02-17T02:53:32.818Z,32.83
2018-02-17T02:56:01.791Z,34.50
2018-02-17T02:58:29.260Z,30.63
2018-02-17T03:00:56.714Z,33.73
2018-02-17T03:03:24.192Z,34.13
2018-02-17T03:05:51.664Z,31.97
2018-02-17T03:08:19.132Z,32.30
2018-02-17T03:10:47.339Z,31.07
2018-02-17T03:13:14.803Z,29.87
2018-02-17T03:15:42.303Z,24.73
2018-02-17T03:18:09.743Z,33.30
2018-02-17T03:20:37.199Z,33.33
2018-02-17T03:23:04.665Z,31.17
2018-02-17T03:25:32.147Z,30.37
2018-02-17T03:27:59.607Z,28.07
2018-02-17T03:30:27.054Z,35.77
2018-02-17T03:32:54.514Z,37.07
2018-02-17T03:35:22.000Z,36.10
2018-02-17T03:37:49.434Z,26.10
2018-02-17T03:40:16.887Z,36.73
2018-02-17T03:42:44.339Z,36.30
2018-02-17T03:45:11.795Z,31.70
2018-02-17T03:47:39.234Z,27.83
2018-02-17T03:50:06.699Z,30.07
2018-02-17T03:52:34.140Z,39.83
2018-02-17T03:55:01.604Z,27.07
2018-02-17T03:57:29.090Z,34.93
2018-02-17T03:59:56.558Z,29.80
2018-02-17T04:02:24.006Z,37.67
2018-02-17T04:04:51.513Z,36.23
2018-02-17T04:07:18.975Z,30.60
2018-02-17T04:09:46.433Z,24.67
2018-02-17T04:12:13.904Z,32.83
2018-02-17T04:14:41.349Z,29.23
2018-02-17T04:17:08.787Z,39.30
2018-02-17T04:19:36.234Z,35.83
2018-02-17T04:22:03.760Z,38.63
2018-02-17T04:24:31.154Z,38.40
2018-02-17T04:26:58.659Z,38.50
2018-02-17T04:29:26.876Z,44.17
2018-02-17T04:31:54.389Z,33.27
2018-02-17T04:34:21.840Z,39.30
2018-02-17T04:36:50.064Z,61.97
2018-02-17T04:39:17.536Z,46.87
2018-02-17T05:17:26.182Z,44.60
2018-02-17T05:20:14.362Z,38.17
2018-02-17T05:22:41.803Z,48.97
2018-02-17T05:25:19.171Z,49.27
2018-02-17T05:27:50.021Z,44.00
2018-02-17T05:30:17.466Z,52.33
2018-02-17T05:33:01.752Z,51.33
2018-02-17T05:35:45.608Z,65.60
2018-02-17T05:38:13.107Z,50.20
2018-02-17T05:40:40.581Z,57.40
2018-02-17T05:43:08.039Z,59.13
2018-02-17T05:45:47.315Z,52.63
2018-02-17T05:48:14.750Z,41.43
2018-02-17T05:50:42.975Z,55.10
2018-02-17T05:53:10.413Z,54.73
2018-02-17T05:55:37.882Z,54.77
2018-02-17T05:58:05.326Z,52.57
2018-02-17T06:00:32.817Z,55.47
2018-02-17T06:03:00.255Z,50.33
2018-02-17T06:05:27.700Z,42.30
2018-02-17T06:07:55.151Z,39.23
2018-02-17T06:10:22.610Z,53.97
2018-02-17T06:12:50.071Z,46.13
2018-02-17T06:15:17.517Z,50.23
2018-02-17T06:17:44.979Z,48.97
2018-02-17T06:20:12.425Z,46.80
2018-02-17T06:22:39.878Z,42.50
2018-02-17T06:25:07.348Z,50.40
2018-02-17T06:27:34.797Z,38.00
2018-02-17T06:30:02.259Z,39.50
2018-02-17T06:32:29.715Z,52.27
2018-02-17T06:34:57.192Z,47.37
2018-02-17T06:37:24.628Z,45.10
2018-02-17T06:39:52.108Z,39.80
2018-02-17T06:42:19.695Z,45.37
2018-02-17T06:44:47.136Z,37.33
2018-02-17T06:47:15.363Z,36.27
2018-02-17T06:49:42.807Z,48.83
2018-02-17T06:52:11.044Z,39.10
2018-02-17T06:54:38.519Z,34.80
2018-02-17T06:57:05.955Z,30.90
2018-02-17T06:59:33.427Z,41.70
2018-02-17T07:02:00.872Z,45.10
2018-02-17T07:04:28.311Z,39.50
2018-02-17T07:06:55.770Z,43.40
2018-02-17T07:09:23.211Z,45.33
2018-02-17T07:11:50.670Z,39.73
2018-02-17T07:14:18.118Z,47.53
2018-02-17T07:16:45.575Z,49.17
2018-02-17T07:19:13.022Z,33.27
2018-02-17T07:21:40.474Z,40.57
2018-02-17T07:24:07.945Z,42.57
2018-02-17T07:26:35.378Z,40.87
2018-02-17T07:29:02.840Z,39.33
2018-02-17T07:31:30.291Z,36.13
2018-02-17T07:33:57.746Z,42.07
2018-02-17T07:36:25.198Z,37.50
2018-02-17T07:38:53.434Z,42.37
2018-02-17T07:41:21.645Z,40.50
2018-02-17T07:43:49.115Z,35.90
2018-02-17T07:46:16.572Z,43.70
2018-02-17T07:48:44.771Z,33.77
2018-02-17T07:51:12.239Z,31.50
2018-02-17T07:53:39.691Z,41.77
2018-02-17T07:56:07.142Z,37.40
2018-02-17T07:58:34.594Z,40.00
2018-02-17T08:01:02.085Z,38.10
2018-02-17T08:03:29.523Z,36.83
2018-02-17T08:05:56.996Z,38.87
2018-02-17T08:08:24.430Z,40.27
2018-02-17T08:10:51.890Z,35.70
2018-02-17T08:13:19.346Z,38.13
2018-02-17T08:15:46.804Z,41.57
2018-02-17T08:18:14.449Z,43.47
2018-02-17T08:20:41.907Z,42.87
2018-02-17T08:23:09.364Z,38.47
2018-02-17T08:25:36.822Z,32.60
2018-02-17T08:28:04.276Z,36.03
2018-02-17T08:30:31.723Z,38.23
2018-02-17T08:32:59.194Z,32.07
2018-02-17T08:35:26.668Z,29.50
2018-02-17T08:37:54.123Z,31.37
2018-02-17T08:40:21.587Z,34.70
2018-02-17T08:42:49.055Z,32.07
2018-02-17T08:45:16.499Z,36.33
2018-02-17T08:47:43.935Z,35.17
2018-02-17T08:50:11.514Z,26.93
2018-02-17T08:52:38.974Z,29.57
2018-02-17T08:55:06.427Z,24.20
2018-02-17T08:57:33.871Z,31.83
2018-02-17T09:00:01.351Z,25.20
2018-02-17T09:02:29.539Z,27.07
2018-02-17T09:04:57.004Z,20.73
2018-02-17T09:07:24.433Z,26.77
2018-02-17T09:09:51.893Z,27.17
2018-02-17T09:12:19.336Z,19.50
2018-02-17T09:14:46.787Z,17.97
2018-02-17T09:17:14.255Z,19.53
2018-02-17T09:19:41.719Z,11.77
2018-02-17T09:22:09.194Z,14.60
2018-02-17T09:24:36.636Z,14.30
2018-02-17T09:27:04.095Z,22.53
2018-02-17T09:29:31.546Z,12.47
2018-02-17T09:31:59.019Z,17.03
2018-02-17T09:34:26.455Z,18.03
2018-02-17T09:36:53.891Z,17.67
2018-02-17T09:39:21.350Z,19.90
2018-02-17T09:41:48.810Z,16.57
2018-02-17T09:44:16.241Z,21.47
2018-02-17T09:46:43.738Z,16.97
2018-02-17T09:49:11.171Z,18.20
2018-02-17T09:51:38.612Z,23.30
2018-02-17T09:54:06.055Z,9.57
2018-02-17T09:56:34.258Z,19.07
2018-02-17T09:59:01.717Z,15.00
2018-02-17T10:01:29.160Z,20.33
2018-02-17T10:03:56.664Z,16.13
2018-02-17T10:06:24.035Z,15.03
2018-02-17T10:08:51.483Z,19.00
2018-02-17T10:11:18.977Z,18.53
2018-02-17T10:13:46.395Z,20.63
2018-02-17T10:16:13.850Z,12.80
2018-02-17T10:18:41.315Z,10.93
2018-02-17T10:21:08.758Z,14.00
2018-02-17T10:23:36.211Z,13.13
2018-02-17T10:26:03.790Z,20.23
2018-02-17T10:28:31.230Z,15.17
2018-02-17T10:30:58.688Z,16.60
2018-02-17T10:33:26.114Z,14.60
2018-02-17T10:35:53.583Z,16.53
2018-02-17T10:38:21.033Z,18.30
2018-02-17T10:40:48.491Z,16.27
2018-02-17T10:43:15.949Z,19.33
2018-02-17T10:45:43.393Z,27.70
2018-02-17T10:48:10.849Z,16.83
2018-02-17T10:50:38.330Z,18.50
2018-02-17T10:53:06.491Z,12.97
2018-02-17T10:55:36.949Z,20.93
2018-02-17T10:58:04.412Z,10.93
2018-02-17T11:00:31.881Z,15.50
2018-02-17T11:02:59.369Z,22.93
2018-02-17T11:05:26.949Z,22.63
2018-02-17T11:07:54.420Z,13.10
2018-02-17T11:10:21.860Z,15.87
2018-02-17T11:12:49.323Z,21.87
2018-02-17T11:15:16.773Z,13.47
2018-02-17T11:17:44.382Z,13.63
2018-02-17T11:20:11.851Z,15.07
2018-02-17T11:22:39.486Z,15.17
2018-02-17T11:25:06.940Z,16.30
2018-02-17T11:27:34.507Z,21.03
2018-02-17T11:30:01.994Z,20.23
2018-02-17T11:32:29.428Z,11.50
2018-02-17T11:34:56.891Z,17.33
2018-02-17T11:37:24.442Z,17.73
2018-02-17T11:39:51.867Z,13.77
2018-02-17T11:42:19.362Z,13.27
2018-02-17T11:44:46.794Z,10.23
2018-02-17T11:47:14.239Z,11.43
2018-02-17T11:49:41.747Z,9.43
2018-02-17T11:52:09.178Z,8.63
2018-02-17T11:54:36.673Z,14.47
2018-02-17T11:57:04.307Z,11.00
2018-02-17T11:59:31.900Z,9.23
2018-02-17T12:01:59.323Z,10.43
2018-02-17T12:04:26.775Z,13.03
2018-02-17T12:06:54.226Z,12.50
2018-02-17T12:09:21.702Z,9.33
2018-02-17T12:11:49.162Z,16.57
2018-02-17T12:14:16.618Z,9.80
2018-02-17T12:16:44.075Z,11.07
2018-02-17T12:19:11.530Z,11.30
2018-02-17T12:21:38.995Z,18.50
2018-02-17T12:24:06.460Z,13.67
2018-02-17T12:26:34.006Z,17.90
2018-02-17T12:29:02.503Z,20.60
2018-02-17T12:31:29.960Z,17.53
2018-02-17T12:33:57.418Z,18.20
2018-02-17T12:36:25.070Z,11.80
2018-02-17T12:38:52.535Z,17.80
2018-02-17T12:41:20.032Z,12.97
2018-02-17T12:43:48.275Z,14.13
2018-02-17T12:46:15.719Z,14.67
2018-02-17T12:48:43.270Z,10.63
2018-02-17T12:51:10.719Z,12.47
2018-02-17T12:53:38.291Z,13.53
2018-02-17T12:56:05.730Z,11.30
2018-02-17T12:58:33.186Z,11.53
2018-02-17T13:01:00.774Z,12.43
2018-02-17T13:03:28.257Z,14.97
2018-02-17T13:05:56.696Z,16.97
2018-02-17T13:08:24.159Z,17.67
2018-02-17T13:10:51.707Z,11.03
2018-02-17T13:13:19.172Z,13.07
2018-02-17T13:15:46.636Z,12.47
2018-02-17T13:18:14.877Z,13.57
2018-02-17T13:20:42.471Z,14.57
2018-02-17T13:23:09.908Z,12.60
2018-02-17T13:25:37.371Z,12.23
2018-02-17T13:28:04.830Z,13.53
2018-02-17T13:30:32.496Z,16.20
2018-02-17T13:32:59.963Z,15.90
2018-02-17T13:35:27.439Z,16.30
2018-02-17T13:37:55.697Z,13.27
2018-02-17T13:40:23.320Z,13.23
2018-02-17T13:42:50.829Z,17.67
2018-02-17T13:45:18.475Z,10.77
2018-02-17T13:47:45.927Z,12.37
2018-02-17T13:50:13.375Z,17.30
2018-02-17T13:52:40.942Z,13.23
2018-02-17T13:55:08.399Z,16.47
2018-02-17T13:57:35.855Z,15.07
2018-02-17T14:00:03.329Z,18.33
2018-02-17T14:02:30.783Z,17.47
2018-02-17T14:04:58.327Z,10.97
2018-02-17T14:07:25.832Z,17.03
2018-02-17T14:09:53.288Z,13.40
2018-02-17T14:12:20.860Z,23.97
2018-02-17T14:14:49.068Z,14.23
2018-02-17T14:17:16.508Z,14.43
2018-02-17T14:19:43.991Z,9.87
2018-02-17T14:22:11.452Z,10.67
2018-02-17T14:24:38.898Z,17.37
2018-02-17T14:27:06.434Z,10.67
2018-02-17T14:29:33.891Z,16.17
2018-02-17T14:32:01.475Z,11.77
2018-02-17T14:34:28.971Z,14.23
2018-02-17T14:36:56.416Z,10.57
2018-02-17T14:39:23.873Z,10.47
2018-02-17T14:41:51.405Z,12.43
2018-02-17T14:44:18.889Z,10.47
2018-02-17T14:46:46.346Z,15.60
2018-02-17T14:49:14.571Z,13.50
2018-02-17T14:51:42.054Z,10.53
2018-02-17T14:54:09.716Z,11.27
2018-02-17T14:56:37.182Z,11.43
2018-02-17T14:59:04.642Z,15.30
2018-02-17T15:01:32.316Z,9.67
2018-02-17T15:04:01.271Z,10.80
2018-02-17T15:06:28.824Z,14.90
2018-02-17T15:08:56.242Z,14.30
2018-02-17T15:11:24.476Z,14.30
2018-02-17T15:13:51.920Z,14.23
2018-02-17T15:16:19.361Z,13.13
2018-02-17T15:18:46.790Z,15.53
2018-02-17T15:21:15.001Z,9.17
2018-02-17T15:23:42.465Z,11.50
2018-02-17T15:26:09.915Z,12.23
2018-02-17T15:28:37.374Z,9.70
2018-02-17T15:31:04.811Z,12.27
2018-02-17T15:33:32.264Z,11.87
2018-02-17T15:36:00.485Z,11.03
2018-02-17T15:38:27.938Z,12.67
2018-02-17T15:40:55.414Z,13.03
2018-02-17T15:43:22.887Z,13.73
2018-02-17T15:45:50.331Z,17.93
2018-02-17T15:48:17.896Z,12.77
2018-02-17T15:50:45.945Z,17.73
2018-02-17T15:53:13.401Z,13.20
2018-02-17T15:55:40.863Z,17.20
2018-02-17T15:58:08.346Z,11.87
2018-02-17T16:00:35.785Z,13.67
2018-02-17T16:03:03.229Z,12.90
2018-02-17T16:05:30.788Z,14.97
2018-02-17T16:07:58.271Z,11.67
2018-02-17T16:10:25.727Z,13.90
2018-02-17T16:12:53.247Z,16.50
2018-02-17T16:15:21.467Z,16.80
2018-02-17T16:17:48.903Z,14.77
2018-02-17T16:20:16.390Z,17.90
2018-02-17T16:22:43.936Z,16.43
2018-02-17T16:25:11.375Z,22.07
2018-02-17T16:27:38.834Z,16.07
2018-02-17T16:30:06.294Z,22.70
2018-02-17T16:32:33.727Z,24.67
2018-02-17T16:35:01.183Z,17.13
2018-02-17T16:37:28.678Z,19.83
2018-02-17T16:39:56.156Z,21.53
2018-02-17T16:42:23.587Z,13.83
2018-02-17T16:44:51.051Z,13.63
2018-02-17T16:47:18.504Z,10.03
2018-02-17T16:49:45.953Z,10.53
2018-02-17T16:52:13.447Z,15.33
2018-02-17T16:54:41.617Z,15.83
2018-02-17T16:57:09.080Z,10.87
2018-02-17T16:59:36.514Z,11.90
2018-02-17T17:02:03.956Z,14.67
2018-02-17T17:04:32.200Z,21.37
2018-02-17T17:06:59.599Z,19.10
2018-02-17T17:09:27.851Z,14.90
2018-02-17T17:11:55.301Z,12.40
2018-02-17T17:14:22.751Z,16.40
2018-02-17T17:16:50.219Z,14.17
2018-02-17T17:19:17.667Z,9.53
2018-02-17T17:21:45.206Z,15.17
2018-02-17T17:24:12.681Z,14.53
2018-02-17T17:26:40.140Z,14.33
2018-02-17T17:29:07.611Z,15.47
2018-02-17T17:31:35.071Z,14.57
2018-02-17T17:34:02.526Z,14.10
2018-02-17T17:36:29.990Z,13.37
2018-02-17T17:38:57.575Z,17.00
2018-02-17T17:41:25.064Z,10.33
2018-02-17T17:43:52.541Z,17.03
2018-02-17T17:46:19.994Z,15.77
2018-02-17T17:48:47.492Z,10.23
2018-02-17T17:51:14.944Z,14.00
2018-02-17T17:53:42.457Z,11.17
2018-02-17T17:56:09.927Z,10.50
2018-02-17T17:58:37.405Z,11.90
2018-02-17T18:01:04.867Z,15.70
2018-02-17T18:03:32.315Z,17.47
2018-02-17T18:05:59.773Z,15.13
2018-02-17T18:08:27.275Z,18.90
2018-02-17T18:10:55.502Z,14.40
2018-02-17T18:13:22.945Z,13.40
2018-02-17T18:15:50.391Z,11.70
2018-02-17T18:18:17.839Z,16.13
2018-02-17T18:20:45.319Z,15.50
2018-02-17T18:23:12.807Z,13.70
2018-02-17T18:25:40.249Z,16.50
2018-02-17T18:28:07.731Z,24.73
2018-02-17T18:30:35.164Z,19.53
2018-02-17T18:33:02.639Z,27.13
2018-02-17T18:35:30.101Z,25.43
2018-02-17T18:37:57.910Z,19.50
2018-02-17T18:40:25.337Z,23.07
2018-02-17T18:42:52.803Z,23.23
2018-02-17T18:45:20.239Z,19.43
2018-02-17T18:47:47.727Z,20.67
2018-02-17T18:50:15.170Z,17.77
2018-02-17T18:52:42.622Z,15.33
2018-02-17T18:55:10.063Z,17.63
2018-02-17T18:57:38.304Z,16.63
2018-02-17T19:00:05.735Z,20.67
2018-02-17T19:02:33.191Z,16.20
2018-02-17T19:05:00.644Z,14.23
2018-02-17T19:07:28.078Z,21.77
2018-02-17T19:09:55.517Z,17.00
2018-02-17T19:12:22.979Z,15.97
2018-02-17T19:14:50.476Z,16.27
2018-02-17T19:17:17.993Z,17.53
2018-02-17T19:19:45.421Z,19.83
2018-02-17T19:22:13.659Z,17.87
2018-02-17T19:24:41.086Z,19.87
2018-02-17T19:27:08.560Z,22.33
2018-02-17T19:29:36.071Z,20.80
2018-02-17T19:32:04.307Z,24.50
2018-02-17T19:34:31.759Z,20.10
2018-02-17T19:36:59.219Z,20.47
2018-02-17T19:39:26.675Z,19.00
2018-02-17T19:41:54.124Z,20.37
2018-02-17T19:44:21.579Z,21.00
2018-02-17T19:46:49.350Z,22.27
2018-02-17T19:49:17.611Z,28.60
2018-02-17T19:51:45.051Z,25.77
2018-02-17T19:54:12.496Z,30.13
2018-02-17T19:56:40.723Z,25.50
2018-02-17T19:59:08.171Z,27.17
2018-02-17T20:01:35.631Z,32.13
2018-02-17T20:04:03.142Z,34.30
2018-02-17T20:06:30.605Z,35.20
2018-02-17T20:08:58.100Z,36.20
2018-02-17T20:11:25.556Z,43.13
2018-02-17T20:13:53.155Z,46.10
2018-02-17T20:16:21.305Z,41.17
2018-02-17T20:18:49.573Z,43.43
2018-02-17T20:21:17.006Z,50.43
2018-02-17T20:23:44.518Z,49.10
2018-02-17T20:26:11.958Z,49.63
2018-02-17T20:28:39.399Z,44.33
2018-02-17T20:31:06.912Z,45.00
2018-02-17T20:33:34.363Z,42.30
2018-02-17T20:36:01.844Z,45.63
2018-02-17T20:38:30.381Z,40.73
2018-02-17T20:40:57.871Z,32.60
2018-02-17T20:43:25.361Z,34.27
2018-02-17T20:45:52.823Z,36.77
2018-02-17T20:48:21.055Z,38.53
2018-02-17T20:50:49.258Z,35.10
2018-02-17T20:53:17.551Z,29.57
2018-02-17T20:55:45.755Z,29.87
2018-02-17T20:58:13.227Z,32.43
2018-02-17T21:00:40.674Z,40.23
2018-02-17T21:03:08.115Z,34.67
2018-02-17T21:05:35.596Z,34.80
2018-02-17T21:08:03.021Z,35.83
2018-02-17T21:10:30.496Z,35.27
2018-02-17T21:12:57.945Z,32.87
2018-02-17T21:15:25.541Z,36.60
2018-02-17T21:17:52.965Z,36.23
2018-02-17T21:20:20.427Z,38.13
2018-02-17T21:22:47.890Z,36.87
2018-02-17T21:25:15.376Z,37.10
2018-02-17T21:27:42.858Z,41.87
2018-02-17T21:30:10.294Z,37.27
2018-02-17T21:32:37.758Z,32.97
2018-02-17T21:35:05.210Z,33.30
2018-02-17T21:37:32.691Z,35.93
2018-02-17T21:40:00.984Z,35.57
2018-02-17T21:42:29.207Z,35.70
2018-02-17T21:44:56.655Z,37.90
2018-02-17T21:47:24.135Z,34.90
2018-02-17T21:49:51.589Z,36.50
2018-02-17T21:52:19.043Z,39.97
2018-02-17T21:54:46.520Z,40.57
2018-02-17T21:57:13.994Z,35.97
2018-02-17T21:59:41.446Z,31.67
2018-02-17T22:02:09.699Z,34.40
2018-02-17T22:04:37.168Z,29.97
2018-02-17T22:07:05.385Z,35.67
2018-02-17T22:09:32.832Z,37.63
2018-02-17T22:12:00.311Z,40.97
2018-02-17T22:14:27.759Z,33.80
2018-02-17T22:16:55.207Z,34.47
2018-02-17T22:19:22.658Z,39.13
2018-02-17T22:21:50.223Z,38.93
2018-02-17T22:24:17.730Z,36.53
2018-02-17T22:26:45.151Z,40.33
2018-02-17T22:29:12.593Z,37.20
2018-02-17T22:31:40.040Z,39.57
2018-02-17T22:34:07.484Z,45.10
2018-02-17T22:36:35.702Z,36.63
2018-02-17T22:39:03.151Z,31.67
2018-02-17T22:41:30.623Z,34.13
2018-02-17T22:43:58.067Z,35.90
2018-02-17T22:46:31.265Z,39.80
2018-02-17T22:48:58.691Z,32.33
2018-02-17T22:51:26.935Z,33.17
2018-02-17T22:53:55.880Z,32.77
2018-02-17T22:56:23.365Z,31.83
2018-02-17T22:58:50.792Z,36.83
2018-02-17T23:01:18.244Z,34.30
2018-02-17T23:03:45.750Z,32.40
2018-02-17T23:06:13.207Z,29.80
2018-02-17T23:08:40.672Z,32.57
2018-02-17T23:11:08.119Z,32.10
2018-02-17T23:13:35.595Z,32.67
2018-02-17T23:16:03.083Z,33.20
2018-02-17T23:18:31.319Z,40.97
2018-02-17T23:20:58.780Z,34.67
2018-02-17T23:23:26.235Z,36.17
2018-02-17T23:25:53.682Z,41.13
2018-02-17T23:28:21.146Z,35.53
2018-02-17T23:30:48.593Z,39.30
2018-02-17T23:33:16.055Z,33.83
2018-02-17T23:35:43.546Z,33.50
2018-02-17T23:38:11.027Z,36.57
2018-02-17T23:40:39.247Z,34.17
2018-02-17T23:43:06.675Z,38.77
2018-02-17T23:45:34.132Z,34.83
2018-02-17T23:48:01.566Z,32.93
2018-02-17T23:50:29.791Z,32.93
2018-02-17T23:52:57.256Z,34.13
2018-02-17T23:55:24.709Z,34.77
2018-02-17T23:57:52.163Z,34.30
